createdAt,value
2023-04-27T00:03:11.963Z,100.00
2023-04-27T00:08:16.515Z,100.00
2023-04-27T00:13:19.372Z,100.00
2023-04-27T00:18:23.401Z,100.00
2023-04-27T00:23:26.115Z,100.00
2023-04-27T00:28:28.748Z,100.00
2023-04-27T00:33:31.581Z,100.00
2023-04-27T00:38:34.257Z,100.00
2023-04-27T00:43:44.893Z,100.00
2023-04-27T00:48:48.262Z,100.00
2023-04-27T00:53:54.122Z,100.00
2023-04-27T00:58:57.124Z,100.00
2023-04-27T01:04:00.319Z,100.00
2023-04-27T01:09:06.452Z,100.00
2023-04-27T01:14:09.010Z,100.00
2023-04-27T01:19:11.925Z,100.00
2023-04-27T01:24:14.839Z,100.00
2023-04-27T01:29:19.331Z,100.00
2023-04-27T01:34:22.131Z,100.00
2023-04-27T01:39:25.054Z,100.00
2023-04-27T01:44:36.507Z,100.00
2023-04-27T01:49:39.427Z,100.00
2023-04-27T01:54:42.361Z,100.00
2023-04-27T01:59:45.546Z,100.00
2023-04-27T02:04:56.009Z,100.00
2023-04-27T02:09:58.807Z,100.00
2023-04-27T02:15:01.528Z,100.00
2023-04-27T02:20:11.849Z,100.00
2023-04-27T02:25:24.666Z,100.00
2023-04-27T02:30:27.659Z,100.00
2023-04-27T02:35:30.536Z,100.00
2023-04-27T02:40:33.327Z,100.00
2023-04-27T02:45:39.485Z,100.00
2023-04-27T02:50:43.178Z,100.00
2023-04-27T02:56:04.138Z,100.00
2023-04-27T03:01:06.958Z,100.00
2023-04-27T03:06:19.693Z,100.00
2023-04-27T03:11:23.449Z,100.00
2023-04-27T03:16:26.549Z,100.00
2023-04-27T03:21:29.809Z,100.00
2023-04-27T03:26:32.577Z,100.00
2023-04-27T03:31:36.156Z,100.00
2023-04-27T03:36:39.308Z,100.00
2023-04-27T03:41:42.157Z,100.00
2023-04-27T03:46:55.220Z,100.00
2023-04-27T03:51:58.159Z,100.00
2023-04-27T03:57:01.114Z,100.00
2023-04-27T04:02:04.838Z,100.00
2023-04-27T04:07:07.653Z,100.00
2023-04-27T04:12:20.357Z,100.00
2023-04-27T04:17:23.374Z,100.00
2023-04-27T04:22:36.161Z,100.00
2023-04-27T04:27:39.343Z,100.00
2023-04-27T04:32:43.590Z,100.00
2023-04-27T04:37:46.737Z,100.00
2023-04-27T04:42:49.463Z,100.00
2023-04-27T04:47:52.945Z,100.00
2023-04-27T04:52:55.815Z,100.00
2023-04-27T04:57:59.496Z,100.00
2023-04-27T05:03:02.360Z,100.00
2023-04-27T05:08:05.524Z,100.00
2023-04-27T05:13:08.303Z,100.00
2023-04-27T05:18:11.012Z,100.00
2023-04-27T05:23:13.767Z,100.00
2023-04-27T05:28:24.068Z,100.00
2023-04-27T05:33:26.877Z,100.00
2023-04-27T05:38:29.528Z,100.00
2023-04-27T05:43:32.495Z,100.00
2023-04-27T05:48:35.166Z,100.00
2023-04-27T05:53:37.834Z,100.00
2023-04-27T05:58:40.614Z,100.00
2023-04-27T06:03:43.534Z,100.00
2023-04-27T06:08:46.454Z,100.00
2023-04-27T06:13:59.303Z,100.00
2023-04-27T06:19:01.966Z,100.00
2023-04-27T06:24:04.825Z,100.00
2023-04-27T06:29:08.781Z,100.00
2023-04-27T06:34:21.520Z,100.00
2023-04-27T06:39:25.703Z,100.00
2023-04-27T06:44:28.466Z,100.00
2023-04-27T06:49:41.369Z,100.00
2023-04-27T06:54:44.873Z,100.00
2023-04-27T06:59:47.645Z,100.00
2023-04-27T07:04:51.504Z,100.00
2023-04-27T07:10:05.248Z,100.00
2023-04-27T07:15:08.705Z,100.00
2023-04-27T07:20:21.413Z,100.00
2023-04-27T07:25:24.151Z,100.00
2023-04-27T07:30:27.084Z,100.00
2023-04-27T07:35:30.364Z,100.00
2023-04-27T07:40:33.860Z,100.00
2023-04-27T07:45:40.066Z,100.00
2023-04-27T07:50:53.272Z,100.00
2023-04-27T07:55:56.130Z,100.00
2023-04-27T08:00:58.968Z,100.00
2023-04-27T08:06:02.197Z,100.00
2023-04-27T08:11:05.430Z,100.00
2023-04-27T08:16:08.464Z,100.00
2023-04-27T08:21:11.429Z,100.00
2023-04-27T08:26:26.270Z,100.00
2023-04-27T08:31:29.441Z,100.00
2023-04-27T08:36:32.441Z,100.00
2023-04-27T08:41:45.486Z,100.00
2023-04-27T08:46:48.469Z,100.00
2023-04-27T08:51:51.425Z,100.00
2023-04-27T08:56:54.068Z,100.00
2023-04-27T09:01:56.972Z,100.00
2023-04-27T09:07:11.474Z,100.00
2023-04-27T09:12:22.531Z,99.34
2023-04-27T09:17:27.411Z,98.37
2023-04-27T09:22:32.267Z,99.86
2023-04-27T09:27:35.116Z,97.60
2023-04-27T09:32:37.791Z,96.43
2023-04-27T09:37:40.433Z,99.44
2023-04-27T09:42:52.144Z,94.89
2023-04-27T09:47:54.856Z,93.61
2023-04-27T09:52:58.051Z,97.50
2023-04-27T09:58:15.670Z,97.73
2023-04-27T10:04:01.562Z,94.26
2023-04-27T10:09:07.292Z,92.39
2023-04-27T10:14:18.228Z,88.22
2023-04-27T10:19:22.457Z,86.70
2023-04-27T10:24:38.907Z,84.85
2023-04-27T10:29:46.929Z,84.78
2023-04-27T10:34:50.322Z,92.68
2023-04-27T10:39:55.025Z,89.33
2023-04-27T10:44:58.970Z,89.16
2023-04-27T10:50:02.190Z,89.58
2023-04-27T10:55:35.179Z,84.37
2023-04-27T11:00:50.285Z,84.31
2023-04-27T11:06:03.240Z,89.76
2023-04-27T11:11:07.655Z,91.97
2023-04-27T11:16:12.961Z,96.93
2023-04-27T11:21:19.684Z,84.54
2023-04-27T11:26:25.973Z,88.07
2023-04-27T11:31:40.699Z,82.37
2023-04-27T11:36:44.362Z,87.61
2023-04-27T11:41:47.804Z,88.78
2023-04-27T11:46:54.163Z,81.55
2023-04-27T11:51:58.337Z,84.23
2023-04-27T11:57:08.918Z,85.35
2023-04-27T12:02:12.750Z,86.83
2023-04-27T12:07:16.506Z,82.63
2023-04-27T12:12:22.036Z,82.70
2023-04-27T12:17:25.506Z,83.01
2023-04-27T12:22:29.659Z,79.60
2023-04-27T12:27:33.077Z,79.66
2023-04-27T12:32:47.161Z,77.99
2023-04-27T12:37:50.948Z,73.69
2023-04-27T12:42:54.541Z,77.51
2023-04-27T12:48:03.990Z,71.36
2023-04-27T12:53:08.692Z,69.12
2023-04-27T12:58:15.591Z,69.24
2023-04-27T13:03:34.840Z,64.20
2023-04-27T13:08:39.836Z,71.98
2023-04-27T13:13:43.586Z,66.31
2023-04-27T13:18:50.229Z,66.91
2023-04-27T13:23:56.363Z,64.99
2023-04-27T13:29:03.070Z,66.47
2023-04-27T13:34:07.127Z,64.97
2023-04-27T13:39:11.078Z,64.16
2023-04-27T13:44:25.291Z,63.69
2023-04-27T13:49:28.756Z,64.53
2023-04-27T13:54:32.166Z,64.54
2023-04-27T13:59:35.614Z,66.00
2023-04-27T14:04:40.000Z,65.65
2023-04-27T14:09:43.733Z,68.16
2023-04-27T14:14:47.499Z,66.46
2023-04-27T14:19:50.892Z,64.68
2023-04-27T14:24:54.569Z,67.11
2023-04-27T14:29:59.113Z,64.64
2023-04-27T14:35:02.860Z,64.63
2023-04-27T14:40:07.843Z,62.81
2023-04-27T14:45:12.090Z,64.20
2023-04-27T14:50:15.674Z,64.20
2023-04-27T14:55:29.223Z,65.42
2023-04-27T15:00:32.734Z,66.99
2023-04-27T15:05:36.285Z,66.24
2023-04-27T15:10:39.703Z,70.77
2023-04-27T15:15:46.584Z,69.37
2023-04-27T15:20:53.380Z,71.34
2023-04-27T15:26:06.805Z,68.64
2023-04-27T15:31:10.441Z,68.47
2023-04-27T15:36:13.890Z,66.09
2023-04-27T15:41:17.612Z,65.55
2023-04-27T15:46:21.047Z,69.86
2023-04-27T15:51:24.794Z,66.45
2023-04-27T15:56:30.713Z,65.46
2023-04-27T16:01:34.414Z,67.91
2023-04-27T16:06:38.226Z,69.02
2023-04-27T16:11:50.738Z,65.85
2023-04-27T16:16:55.803Z,66.13
2023-04-27T16:21:59.196Z,63.94
2023-04-27T16:27:04.364Z,64.82
2023-04-27T16:32:07.771Z,65.09
2023-04-27T16:37:12.112Z,66.47
2023-04-27T16:42:27.612Z,64.59
2023-04-27T16:47:32.568Z,63.59
2023-04-27T16:52:36.094Z,63.06
2023-04-27T16:57:39.955Z,64.39
2023-04-27T17:02:44.042Z,60.85
2023-04-27T17:07:47.635Z,58.51
2023-04-27T17:12:50.897Z,58.42
2023-04-27T17:17:54.198Z,58.23
2023-04-27T17:22:57.479Z,56.54
2023-04-27T17:28:01.695Z,56.76
2023-04-27T17:33:05.219Z,58.96
2023-04-27T17:38:09.271Z,57.47
2023-04-27T17:43:12.516Z,59.03
2023-04-27T17:48:17.218Z,64.58
2023-04-27T17:53:20.667Z,70.54
2023-04-27T17:58:23.892Z,76.07
2023-04-27T18:03:28.064Z,100.00
2023-04-27T18:08:31.514Z,100.00
2023-04-27T18:13:42.459Z,100.00
2023-04-27T18:18:45.758Z,100.00
2023-04-27T18:23:49.236Z,100.00
2023-04-27T18:28:52.745Z,100.00
2023-04-27T18:33:56.831Z,100.00
2023-04-27T18:39:00.485Z,100.00
2023-04-27T18:44:05.894Z,100.00
2023-04-27T18:49:09.204Z,100.00
2023-04-27T18:54:12.794Z,100.00
2023-04-27T18:59:16.447Z,100.00
2023-04-27T19:04:30.678Z,100.00
2023-04-27T19:09:33.383Z,100.00
2023-04-27T19:14:36.201Z,100.00
2023-04-27T19:19:38.789Z,100.00
2023-04-27T19:24:41.415Z,100.00
2023-04-27T19:29:53.898Z,100.00
2023-04-27T19:34:58.346Z,100.00
2023-04-27T19:40:01.257Z,100.00
2023-04-27T19:45:04.769Z,100.00
2023-04-27T19:50:14.570Z,100.00
2023-04-27T19:55:17.399Z,100.00
2023-04-27T20:00:20.206Z,100.00
2023-04-27T20:05:23.412Z,100.00
2023-04-27T20:10:26.943Z,100.00
2023-04-27T20:15:29.943Z,100.00
2023-04-27T20:20:33.304Z,100.00
2023-04-27T20:25:36.008Z,100.00
2023-04-27T20:30:49.684Z,100.00
2023-04-27T20:35:58.697Z,100.00
2023-04-27T20:41:05.495Z,100.00
2023-04-27T20:46:08.999Z,100.00
2023-04-27T20:51:11.621Z,100.00
2023-04-27T20:56:14.655Z,100.00
2023-04-27T21:01:17.871Z,100.00
2023-04-27T21:06:20.753Z,100.00
2023-04-27T21:11:23.480Z,100.00
2023-04-27T21:16:26.484Z,100.00
2023-04-27T21:21:29.184Z,100.00
2023-04-27T21:26:32.908Z,100.00
2023-04-27T21:31:36.403Z,100.00
2023-04-27T21:36:39.513Z,100.00
2023-04-27T21:41:42.325Z,100.00
2023-04-27T21:46:45.392Z,100.00
2023-04-27T21:51:48.491Z,100.00
2023-04-27T21:56:51.567Z,100.00
2023-04-27T22:01:54.605Z,100.00
2023-04-27T22:06:57.487Z,100.00
2023-04-27T22:12:00.228Z,100.00
2023-04-27T22:17:02.964Z,100.00
2023-04-27T22:22:06.114Z,100.00
2023-04-27T22:27:09.058Z,100.00
2023-04-27T22:32:21.973Z,100.00
2023-04-27T22:37:26.751Z,100.00
2023-04-27T22:42:30.704Z,100.00
2023-04-27T22:47:45.670Z,100.00
2023-04-27T22:52:49.417Z,100.00
2023-04-27T22:57:54.455Z,100.00
2023-04-27T23:02:57.473Z,100.00
2023-04-27T23:08:00.907Z,100.00
2023-04-27T23:13:04.077Z,100.00
2023-04-27T23:18:07.068Z,100.00
2023-04-27T23:23:09.735Z,100.00
2023-04-27T23:28:12.728Z,100.00
2023-04-27T23:33:16.315Z,100.00
2023-04-27T23:38:29.374Z,100.00
2023-04-27T23:43:32.758Z,100.00
2023-04-27T23:48:35.499Z,100.00
2023-04-27T23:53:40.414Z,100.00
2023-04-27T23:58:43.033Z,100.00
